Patrick Muller

Scout - Sochaux
16 Apr 2028
Sonntag
Verarbeitung

Persönlichkeit

Anpassungsfähigkeit (3) Ehrgeiz (10) Kontroverse (10) Loyalität (1) Druck (17) Professionalität (5) Fairness (1) Temperament (10)

Profil

Trainerstil Demokratisch
Lizenz Nationale B
Entschlossenheit 7
Menschenführung 12
Motivation 8
Disziplin 10
Arbeitszufriedenheit
100%
Ermüdung
0%
Rolle Scout
Gehalt 12.5K p/W
Vertrag 14.03.2030

Leistung

Verhalten Gut
Trainingseffektivität
36%
Spielerentwicklung
55%
Verletzungsprävention
60%
Taktische Umsetzung
30%

Letzte Ereignisse

Nahm an einer Scouting-Besprechung teil jetzt
Empfahl ein Transferziel jetzt
Empfahl ein Transferziel jetzt
Empfahl ein Transferziel jetzt
Spieler begutachtet 7T her
Spieler begutachtet 7T her
Spieler begutachtet 7T her
Spieler begutachtet 7T her

Aktuell beobachtet

97
Spieler Verein Status Fähigkeit Vertrauen Beobachtet Zuletzt beobachtet Letzte Stimme
Daniel Banjaqui Benfica Aktiv 121 / 126 40% 1 14.04.2028 -
Bongani Jali Free State Stars Aktiv 106 / 113 40% 1 14.04.2028 -
Andrija Bulatović Chamois Niortais Aktiv 130 / 136 40% 1 14.04.2028 -
Riquelme Thompson-Jones Accrington Stanley Aktiv 111 / 113 40% 1 12.04.2028 -
Maël Monyebe Gazelle Garoua Aktiv 85 / 96 40% 1 12.04.2028 -
Federico Matarán Giana Erminio Aktiv 108 / 116 40% 1 12.04.2028 -
Khalis Merah Olympique Lyonnais Aktiv 132 / 145 40% 2 08.04.2028 -
Kelian Le Pironnec Mirandés Aktiv 102 / 99 40% 1 08.04.2028 -
Gustavo Albarracín Alavés Aktiv 108 / 117 40% 1 08.04.2028 -
Giovanni Leoni Lincoln City Aktiv 145 / 138 40% 3 07.04.2028 -
Andrey Ivlev Nizhniy Novgorod Aktiv 119 / 124 40% 2 07.04.2028 -
Makar Vysochenko Spartak Moscow Aktiv 96 / 102 40% 1 07.04.2028 -
Trey Nyoni Rotherham United Aktiv 142 / 142 40% 2 05.04.2028 -
Josh King Newcastle United Aktiv 145 / 156 40% 1 05.04.2028 -
Dmitry Pestryakov Krasnodar Aktiv 105 / 111 40% 1 05.04.2028 -
Tylel Tati Chamois Niortais Aktiv 133 / 125 40% 1 04.04.2028 -
Olivier Mambwa Young Boys Aktiv 116 / 112 40% 1 04.04.2028 -
Martim Cunha Porto Aktiv 109 / 110 40% 1 04.04.2028 -
Thulani Manyama SuperSport United Aktiv 113 / 112 40% 1 30.03.2028 -
Thijs Kraaijeveld USM Alger Aktiv 126 / 134 40% 2 29.03.2028 -
Abubakar Adams Aduana Stars Aktiv 79 / 100 40% 1 29.03.2028 -
Josh Acheampong Everton Aktiv 142 / 152 40% 1 29.03.2028 -
Nicolas Sport Recife Aktiv 93 / 116 40% 1 22.03.2028 -
Olivier Leroux Mouscron Aktiv 101 / 116 40% 1 22.03.2028 -
Kwesi Sorotu Badori Berekum Chelsea Aktiv 84 / 92 40% 1 22.03.2028 -
Josh Nichols Oldham Athletic Aktiv 118 / 133 40% 1 21.03.2028 -
Adnan Nainggolan KV Oostende Aktiv 96 / 118 40% 1 21.03.2028 -
Konta Ismaily Aktiv 103 / 100 40% 1 20.03.2028 -
Bernardo Lima Porto Aktiv 107 / 117 40% 1 20.03.2028 -
Joseph Namatane FC Metz Aktiv 99 / 97 40% 1 20.03.2028 -
Ivan Giraldo Valencia Aktiv 120 / 134 40% 2 12.03.2028 -
Ayden Heaven Portsmouth Aktiv 139 / 157 40% 1 07.03.2028 -
Quentin Beunardeau Red Star Aktiv 123 / 113 62% 1 19.07.2027 Befürworten
Ahmad Ngouyamsa US Creteil Aktiv 117 / 110 62% 1 01.06.2027 Befürworten
Mohamed Belloumi Hull City Aktiv 137 / 130 40% 1 30.05.2027 -
Welington Southampton Aktiv 130 / 127 40% 1 29.05.2027 -
Bosun Lawal Stoke City Aktiv 118 / 130 40% 1 27.05.2027 -
Cian Ashford Cardiff City Aktiv 122 / 122 40% 1 24.05.2027 -
Tyrese Campbell Sheffield United Aktiv 121 / 131 40% 1 24.05.2027 -
Ethan Galbraith Swansea City Aktiv 128 / 131 40% 2 22.05.2027 -
Ilias Sebaoui Sint-Truiden Aktiv 124 / 123 40% 3 20.05.2027 -
Kristoffer Lund Birmingham Aktiv 122 / 129 40% 1 14.05.2027 -
Jeppe Erenbjerg Racing Genk Aktiv 118 / 120 40% 1 13.05.2027 -
Abu Kamara Portsmouth Aktiv 111 / 116 40% 1 13.05.2027 -
Scott Twine Bristol City Aktiv 123 / 127 40% 1 11.05.2027 -
Rocco Vata Watford Aktiv 115 / 117 40% 1 11.05.2027 -
Alfie Doughty Millwall Aktiv 131 / 130 40% 1 08.05.2027 -
Finn Azaz Southampton Aktiv 123 / 128 40% 1 05.05.2027 -
Jack Currie Oxford United Aktiv 116 / 115 40% 2 04.05.2027 -
Mohamed-Ali Cho Hull City Aktiv 141 / 143 40% 1 04.05.2027 -
Jason Knight Bristol City Aktiv 140 / 132 40% 1 03.05.2027 -
Léandre Kuavita Waasland-Beveren Aktiv 108 / 119 40% 1 30.04.2027 -
Martin Baturina Como Aktiv 135 / 132 40% 1 30.04.2027 -
Thibaud Verlinden OH Leuven Aktiv 119 / 116 40% 2 29.04.2027 -
Jack Rudoni Coventry City Aktiv 132 / 129 40% 1 28.04.2027 -
Sylvester Jasper Standard Liege Aktiv 122 / 114 40% 1 28.04.2027 -
Abdelkahar Kadri KAA Gent Aktiv 123 / 123 40% 3 26.04.2027 -
Jesús Rodríguez Como Aktiv 140 / 148 40% 1 20.04.2027 -
Isaiah Jones Luton Town Aktiv 123 / 127 40% 5 14.04.2027 -
Brooke Norton-Cuffy Hull City Aktiv 130 / 131 40% 1 14.04.2027 -
Juan Bezerra Zamalek Aktiv 125 / 125 40% 1 13.04.2027 -
Xavier Amaechi Plymouth Argyle Aktiv 101 / 104 40% 1 13.04.2027 -
Milan van Ewijk Coventry City Aktiv 138 / 129 40% 1 10.04.2027 -
Themba Williams Ajax Cape Town Aktiv 124 / 119 40% 1 10.04.2027 -
Antoine Colassin Charleroi Aktiv 113 / 114 40% 1 08.04.2027 -
Christophe Roger Chamois Niortais Aktiv 132 / 125 40% 2 07.04.2027 -
Luca Koleosho Paris FC Aktiv 131 / 135 40% 1 05.04.2027 -
Hicham Mahou Angers SCO Aktiv 110 / 110 40% 1 05.04.2027 -
Carlos Vicente Birmingham Aktiv 148 / 139 40% 1 02.04.2027 -
Ayman Kari Westerlo Aktiv 125 / 116 40% 2 29.03.2027 -
Taiga Hata Sint-Truiden Aktiv 132 / 118 40% 2 28.03.2027 -
Florentino Luís Ipswich Town Aktiv 150 / 141 40% 1 28.03.2027 -
Joe Gelhardt Hull City Aktiv 135 / 136 40% 1 24.03.2027 -
Tommy St. Jago KV Mechelen Aktiv 112 / 120 40% 1 24.03.2027 -
Chris Lokesa Waasland-Beveren Aktiv 122 / 123 40% 1 22.03.2027 -
Oswin Appollis Orlando Pirates Aktiv 132 / 111 40% 1 20.03.2027 -
Mardochée Nzita Charleroi Aktiv 107 / 122 40% 2 18.03.2027 -
Ar'jany Martha Rotherham United Aktiv 115 / 109 40% 1 18.03.2027 -
Théodore Lefèvre Tours Aktiv 138 / 123 40% 1 17.03.2027 -
Louie Barry Sheffield Wednesday Aktiv 116 / 121 40% 1 16.03.2027 -
Daniel Kyerewaa Reading Aktiv 121 / 107 40% 1 16.03.2027 -
Thomas Claes Zulte Waregem Aktiv 108 / 125 40% 2 14.03.2027 -
Bongani Zungu Ajax Cape Town Aktiv 142 / 137 40% 1 14.03.2027 -
Malick Mbaye Zulte Waregem Aktiv 116 / 118 40% 1 13.03.2027 -
Samuel Edozie Southampton Aktiv 130 / 134 40% 1 12.03.2027 -
Timothy Witsel FC Metz Aktiv 126 / 129 40% 1 07.03.2027 -
Nacim Dendani Monaco Aktiv 90 / 95 62% 1 01.01.2027 Befürworten
Max Bird Birmingham Aktiv 141 / 131 40% 1 14.12.2026 -
Thibaut Vargas Stade Lavallois Aktiv 107 / 107 40% 1 11.12.2026 -
Wilguens Paugain Zulte Waregem Aktiv 108 / 110 40% 1 11.12.2026 -
Manu Morlanes Mallorca Aktiv 128 / 130 40% 1 10.12.2026 -
José Marsà KV Mechelen Aktiv 128 / 126 40% 1 10.12.2026 -
Botond Balogh Westerlo Aktiv 125 / 126 40% 1 08.12.2026 -
Teden Mengi Luton Town Aktiv 114 / 131 40% 1 21.11.2026 -
Enrique Lofolomo Zulte Waregem Aktiv 111 / 114 40% 1 11.11.2026 -
Nobel Mendy Hull City Aktiv 131 / 127 40% 1 02.11.2026 -
Ousmane Diomande Nottingham Forest Aktiv 148 / 156 40% 1 07.10.2026 -